Time;durP1;ratioP1;P1;durP2;ratioP2;P2;SDS_P1;SDS_P2;PMS_P1;PMS_P2;Temp;Humidity;BMP_temperature;BMP_pressure;BME280_temperature;BME280_humidity;BME280_pressure;Samples;Min_cycle;Max_cycle;Signal;HPM_P1;HPM_P2
2021/12/05 00:24:36;;;;;;;17.85;11.95;;;;;;;6.98;64.22;100129.25;5095910;28;20044;-57
2021/12/05 00:27:14;;;;;;;18.23;13.23;;;;;;;6.97;64.10;100129.31;5095657;28;20488;-57
2021/12/05 00:40:43;;;;;;;20.20;12.60;;;;;;;6.95;64.56;100097.25;5095614;28;20048;-57
2021/12/05 00:51:25;;;;;;;17.48;12.43;;;;;;;6.98;64.64;100094.47;5095468;28;20048;-57
2021/12/05 01:15:40;;;;;;;16.75;12.60;;;;;;;6.90;65.17;100092.28;5094859;28;20071;-59
2021/12/05 01:18:13;;;;;;;18.35;12.82;;;;;;;6.92;65.09;100097.41;5094862;28;20048;-57
2021/12/05 01:20:54;;;;;;;21.20;13.38;;;;;;;6.90;65.32;100097.50;5095054;28;20048;-56
2021/12/05 01:23:37;;;;;;;17.38;12.60;;;;;;;6.92;65.23;100089.59;5094830;28;20048;-57
2021/12/05 01:26:12;;;;;;;18.33;12.15;;;;;;;6.93;65.08;100079.09;5094368;28;20055;-57
2021/12/05 02:35:53;;;;;;;21.00;13.90;;;;;;;6.68;66.54;100041.25;5113277;28;20188;-58
2021/12/05 02:41:08;;;;;;;19.88;13.35;;;;;;;6.68;66.42;100027.38;5113898;28;20384;-57
2021/12/05 02:43:41;;;;;;;19.80;13.98;;;;;;;6.65;66.62;100025.78;5113753;28;20411;-58
2021/12/05 02:46:09;;;;;;;19.65;13.48;;;;;;;6.64;66.73;100026.69;5113514;28;20039;-57
2021/12/05 02:48:37;;;;;;;19.00;13.15;;;;;;;6.68;66.50;100017.78;5113604;28;20051;-61
2021/12/05 02:51:10;;;;;;;19.42;13.00;;;;;;;6.66;66.59;100017.00;5101097;28;20546;-61
2021/12/05 02:56:11;;;;;;;20.15;13.45;;;;;;;6.75;66.34;100004.41;5092757;28;20534;-57
2021/12/05 02:58:49;;;;;;;19.52;13.98;;;;;;;6.76;66.68;99990.47;5093049;28;20050;-57
2021/12/05 03:01:23;;;;;;;20.35;14.02;;;;;;;6.79;66.45;99985.06;5093020;28;20127;-57
2021/12/05 03:03:53;;;;;;;18.90;13.77;;;;;;;6.73;66.37;99980.19;5093149;28;20044;-57
2021/12/05 03:06:24;;;;;;;19.20;13.68;;;;;;;6.62;66.83;99973.78;5093057;28;20044;-57
2021/12/05 03:09:13;;;;;;;21.33;13.48;;;;;;;6.72;66.55;99965.44;5092461;28;20054;-58
2021/12/05 03:11:40;;;;;;;16.17;12.75;;;;;;;6.70;66.66;99952.50;5092950;28;20404;-58
2021/12/05 03:14:08;;;;;;;20.00;14.02;;;;;;;6.67;66.77;99940.47;5092795;28;20047;-57
2021/12/05 03:16:36;;;;;;;17.80;14.13;;;;;;;6.69;66.96;99946.47;5092640;28;20048;-66
2021/12/05 03:19:05;;;;;;;19.08;14.18;;;;;;;6.65;66.76;99952.78;5092779;28;20044;-57
2021/12/05 03:21:34;;;;;;;19.90;14.23;;;;;;;6.59;67.10;99963.53;5092646;28;20072;-57
2021/12/05 03:24:02;;;;;;;19.92;14.27;;;;;;;6.51;67.45;99965.66;5092056;28;20492;-57
2021/12/05 03:26:33;;;;;;;21.60;15.07;;;;;;;6.45;67.41;99972.06;5092774;28;20105;-57
2021/12/05 03:29:00;;;;;;;20.27;14.70;;;;;;;6.43;67.46;99971.28;5092652;28;20044;-58
2021/12/05 03:31:30;;;;;;;19.00;14.25;;;;;;;6.41;67.76;99967.06;5092672;28;20117;-58
2021/12/05 03:33:58;;;;;;;20.60;14.27;;;;;;;6.42;67.72;99972.19;5092301;28;20049;-57
2021/12/05 03:36:26;;;;;;;21.85;15.05;;;;;;;6.48;67.59;99977.09;5091898;28;20047;-57
2021/12/05 03:38:53;;;;;;;21.85;14.60;;;;;;;6.47;67.42;99988.44;5092391;28;20059;-64
2021/12/05 03:41:20;;;;;;;20.80;14.75;;;;;;;6.48;67.38;99971.88;5096956;28;20039;-65
2021/12/05 03:43:49;;;;;;;21.40;14.85;;;;;;;6.50;67.43;99980.47;5112744;28;20047;-57
2021/12/05 03:46:17;;;;;;;18.10;13.75;;;;;;;6.47;67.60;99985.00;5112624;28;20525;-57
2021/12/05 03:48:50;;;;;;;21.48;14.45;;;;;;;6.51;67.56;99982.16;5112785;28;20386;-57
2021/12/05 03:51:21;;;;;;;20.50;13.63;;;;;;;6.43;67.80;99988.69;5112599;28;20096;-57
2021/12/05 03:53:49;;;;;;;19.98;14.18;;;;;;;6.40;67.82;99974.06;5112641;28;20097;-57
2021/12/05 03:56:16;;;;;;;22.30;15.45;;;;;;;6.33;67.84;99978.72;5111588;28;20051;-57
2021/12/05 03:58:44;;;;;;;23.67;15.68;;;;;;;6.19;68.28;99974.22;5112837;28;20120;-65
2021/12/05 04:01:12;;;;;;;23.25;15.35;;;;;;;6.13;68.44;99969.34;5112591;28;20093;-65
2021/12/05 04:03:41;;;;;;;22.00;15.38;;;;;;;6.09;68.78;99982.59;5107659;28;20407;-59
2021/12/05 04:06:10;;;;;;;22.10;15.48;;;;;;;6.12;68.63;99974.63;5108689;28;20043;-59
2021/12/05 04:08:40;;;;;;;23.17;15.55;;;;;;;6.14;68.65;99976.22;5109082;28;20040;-59
2021/12/05 04:11:15;;;;;;;22.05;14.52;;;;;;;6.08;68.73;99975.69;5108614;28;20054;-56
2021/12/05 04:13:43;;;;;;;22.35;15.77;;;;;;;6.12;68.50;99958.97;5108123;28;20487;-57
2021/12/05 04:16:11;;;;;;;19.50;14.23;;;;;;;6.11;68.78;99972.94;5108987;28;20108;-57
2021/12/05 04:18:38;;;;;;;19.55;15.45;;;;;;;6.12;68.58;99985.03;5109071;28;20044;-57
2021/12/05 04:21:05;;;;;;;23.52;16.60;;;;;;;6.07;68.95;100000.03;5108940;28;20069;-57
2021/12/05 04:23:33;;;;;;;21.27;16.23;;;;;;;6.08;68.77;100007.78;5108974;28;20051;-57
2021/12/05 04:26:00;;;;;;;20.33;15.38;;;;;;;6.08;68.54;100009.56;5109070;28;20047;-57
2021/12/05 04:28:27;;;;;;;22.17;15.45;;;;;;;6.04;68.69;99999.31;5109340;28;20449;-57
2021/12/05 04:30:55;;;;;;;22.20;15.63;;;;;;;6.05;68.60;100010.56;5101359;28;20044;-57
2021/12/05 04:33:23;;;;;;;22.80;16.55;;;;;;;6.11;68.50;100002.44;5088589;28;20044;-56
2021/12/05 04:35:50;;;;;;;21.75;15.82;;;;;;;6.07;68.93;99998.31;5088395;28;20066;-57
2021/12/05 04:38:17;;;;;;;20.67;15.45;;;;;;;6.12;68.44;100001.53;5088812;28;20557;-56
2021/12/05 04:40:47;;;;;;;21.83;14.95;;;;;;;6.13;68.32;99984.97;5088731;28;20044;-57
2021/12/05 04:43:14;;;;;;;20.77;15.65;;;;;;;6.11;68.32;99980.78;5088530;28;20051;-57
2021/12/05 04:45:41;;;;;;;23.95;16.20;;;;;;;6.18;68.25;99979.50;5088537;28;20040;-57
2021/12/05 04:48:08;;;;;;;25.10;16.35;;;;;;;6.10;68.60;99979.91;5104847;28;20074;-57
2021/12/05 04:50:37;;;;;;;21.45;15.68;;;;;;;6.13;68.46;99984.13;5112641;28;20104;-57
2021/12/05 04:53:05;;;;;;;23.83;16.60;;;;;;;6.15;68.47;99992.72;5112022;28;20577;-57
2021/12/05 04:55:33;;;;;;;21.85;15.68;;;;;;;6.19;68.21;99991.63;5112235;27;20502;-57
2021/12/05 04:58:02;;;;;;;22.70;16.52;;;;;;;6.18;68.29;99998.63;5112171;28;20054;-57
2021/12/05 05:00:42;;;;;;;23.17;15.55;;;;;;;6.16;68.15;100016.06;5112113;28;20047;-57
2021/12/05 05:03:10;;;;;;;24.67;16.70;;;;;;;6.15;68.29;100016.16;5112043;28;20586;-57
2021/12/05 05:05:44;;;;;;;25.95;16.88;;;;;;;6.06;68.54;100020.06;5093650;28;20048;-59
2021/12/05 05:08:11;;;;;;;25.25;16.48;;;;;;;6.10;68.69;100020.75;5091877;28;20131;-56
2021/12/05 05:10:38;;;;;;;20.98;15.35;;;;;;;6.09;68.61;100019.88;5091216;28;20052;-57
2021/12/05 05:13:05;;;;;;;21.85;16.27;;;;;;;6.09;68.50;100019.88;5091597;28;20052;-57
2021/12/05 05:15:32;;;;;;;24.52;16.15;;;;;;;6.14;68.54;100023.09;5091686;28;20052;-57
2021/12/05 05:18:01;;;;;;;24.52;15.70;;;;;;;6.04;69.00;100027.09;5091423;28;20563;-56
2021/12/05 05:42:46;;;;;;;22.30;16.38;;;;;;;6.23;68.15;100021.81;5091320;28;20059;-57
2021/12/05 05:50:48;;;;;;;19.67;15.18;;;;;;;6.20;68.43;100012.38;5075097;28;20048;-56
2021/12/05 05:53:15;;;;;;;22.00;16.00;;;;;;;6.22;68.30;100009.69;5090298;28;20044;-57
2021/12/05 05:55:41;;;;;;;23.25;15.82;;;;;;;6.21;68.38;100019.28;5091012;28;20044;-57
2021/12/05 05:58:20;;;;;;;23.20;16.50;;;;;;;6.21;68.39;100021.88;5090198;28;20420;-57
2021/12/05 06:01:08;;;;;;;24.15;16.92;;;;;;;6.20;68.30;100021.97;5090664;28;20051;-57
2021/12/05 06:03:41;;;;;;;23.92;16.40;;;;;;;6.25;68.47;100016.50;5090650;28;20075;-60
2021/12/05 06:06:16;;;;;;;24.65;16.77;;;;;;;6.25;68.10;100001.75;5090532;28;20058;-57
2021/12/05 06:08:44;;;;;;;21.65;15.82;;;;;;;6.26;68.21;100000.81;5090729;28;20044;-57
2021/12/05 06:11:14;;;;;;;22.63;16.42;;;;;;;6.26;68.39;99998.22;5089924;28;20060;-58
2021/12/05 06:13:41;;;;;;;23.27;16.88;;;;;;;6.12;68.62;99996.31;5090738;28;20048;-62
2021/12/05 06:16:12;;;;;;;21.95;15.80;;;;;;;6.00;68.86;99989.94;5090261;28;20050;-57
2021/12/05 06:18:39;;;;;;;22.73;16.90;;;;;;;6.03;68.94;100000.22;5090330;28;20040;-57
2021/12/05 06:21:08;;;;;;;24.60;17.00;;;;;;;6.02;68.91;99998.53;5090161;28;20044;-57
2021/12/05 06:23:37;;;;;;;24.10;17.83;;;;;;;6.09;68.65;99998.22;5090227;28;20420;-60
2021/12/05 06:26:07;;;;;;;21.60;16.45;;;;;;;6.15;68.20;99995.31;5089990;28;20058;-66
2021/12/05 06:42:08;;;;;;;29.00;18.80;;;;;;;6.13;68.27;99999.75;5110449;28;20048;-57
2021/12/05 06:47:23;;;;;;;29.05;19.35;;;;;;;6.21;67.95;99995.00;5110223;27;20047;-57
2021/12/05 06:49:52;;;;;;;26.90;19.38;;;;;;;6.30;67.64;99997.13;5109988;28;20457;-58
2021/12/05 06:52:39;;;;;;;28.50;20.25;;;;;;;6.32;67.47;99994.44;5109960;28;20050;-56
2021/12/05 06:55:06;;;;;;;33.20;21.88;;;;;;;6.29;67.33;99992.00;5109990;28;20051;-57
2021/12/05 06:57:33;;;;;;;28.95;20.75;;;;;;;6.27;67.59;99992.09;5110033;28;20396;-69
2021/12/05 07:00:03;;;;;;;28.20;19.73;;;;;;;6.28;67.35;99988.53;5110102;28;20051;-59
2021/12/05 07:02:30;;;;;;;30.90;20.00;;;;;;;6.25;67.67;99988.72;5107599;28;20052;-59
2021/12/05 07:07:27;;;;;;;30.52;20.15;;;;;;;6.23;67.21;99993.16;5089394;28;20100;-59
2021/12/05 07:09:56;;;;;;;34.05;21.30;;;;;;;6.21;67.33;100000.22;5088210;28;20063;-59
2021/12/05 07:15:15;;;;;;;26.52;18.98;;;;;;;6.24;67.07;99979.22;5089590;28;20055;-59
2021/12/05 07:20:47;;;;;;;28.88;18.90;;;;;;;6.29;66.56;99977.22;5088560;28;20080;-59
2021/12/05 07:26:04;;;;;;;26.75;19.25;;;;;;;6.30;66.45;99978.91;5089388;28;20056;-59
2021/12/05 07:42:23;;;;;;;27.50;18.90;;;;;;;6.14;66.44;99968.41;5088845;28;20044;-60
2021/12/05 07:44:52;;;;;;;26.02;18.05;;;;;;;6.12;66.31;99966.81;5088099;28;20446;-60
2021/12/05 07:47:22;;;;;;;28.13;18.67;;;;;;;6.07;66.28;99980.06;5088861;28;20476;-60
2021/12/05 07:49:52;;;;;;;25.65;17.98;;;;;;;5.99;66.50;99983.06;5087418;28;20048;-60
2021/12/05 07:52:23;;;;;;;27.30;18.83;;;;;;;6.03;66.16;99975.91;5089419;28;20401;-60
2021/12/05 07:54:57;;;;;;;27.45;17.73;;;;;;;6.07;66.05;99987.88;5088973;28;20048;-59
2021/12/05 07:57:30;;;;;;;27.83;19.17;;;;;;;6.24;65.48;99983.59;5089162;28;20052;-57
2021/12/05 08:16:29;;;;;;;25.77;16.50;;;;;;;7.92;61.15;99976.25;5088993;28;20044;-60
2021/12/05 08:18:57;;;;;;;23.25;16.50;;;;;;;8.04;60.94;99965.09;5088987;28;20052;-57
2021/12/05 08:21:24;;;;;;;24.20;17.45;;;;;;;8.25;60.44;99967.34;5089825;28;20047;-57
2021/12/05 08:23:51;;;;;;;23.70;16.42;;;;;;;8.48;59.68;99969.47;5092553;28;20441;-57
2021/12/05 08:26:25;;;;;;;22.70;16.77;;;;;;;8.64;59.34;99961.53;5092317;28;20484;-57
2021/12/05 08:34:07;;;;;;;23.92;16.48;;;;;;;8.92;58.38;99962.44;5092961;28;20048;-64
2021/12/05 09:21:33;;;;;;;65.47;51.75;;;;;;;10.72;53.01;99955.97;5100213;28;20054;-61
2021/12/05 10:03:02;;;;;;;84.40;52.78;;;;;;;11.28;51.26;99932.66;5089917;28;20048;-59
2021/12/05 10:08:38;;;;;;;83.03;57.33;;;;;;;11.71;50.19;99925.22;5090478;28;20561;-60
2021/12/05 10:11:26;;;;;;;81.50;55.10;;;;;;;11.81;49.94;99912.22;5090184;28;20420;-59
2021/12/05 10:38:35;;;;;;;35.40;24.10;;;;;;;12.47;49.72;99896.69;5090299;28;20138;-66
2021/12/05 10:43:43;;;;;;;31.25;22.33;;;;;;;12.22;49.96;99882.78;5089934;28;20542;-59
2021/12/05 10:48:55;;;;;;;37.45;26.38;;;;;;;11.64;51.10;99881.94;5065641;28;20398;-61
2021/12/05 10:51:28;;;;;;;49.15;33.28;;;;;;;11.56;51.14;99880.72;5065891;28;20045;-61
2021/12/05 10:53:59;;;;;;;38.35;26.10;;;;;;;11.44;51.61;99881.66;5059847;28;20132;-61
2021/12/05 10:56:27;;;;;;;34.65;21.33;;;;;;;11.89;51.07;99879.13;5049386;28;20049;-61
2021/12/05 11:24:05;;;;;;;48.92;30.65;;;;;;;10.16;54.30;99839.13;5046125;28;20392;-60
2021/12/05 11:26:34;;;;;;;57.78;31.65;;;;;;;10.16;54.82;99843.50;5045491;28;20045;-61
2021/12/05 11:29:00;;;;;;;117.53;52.45;;;;;;;10.13;55.07;99842.78;5044150;28;20049;-63
2021/12/05 11:31:30;;;;;;;71.25;36.45;;;;;;;10.14;55.24;99830.50;5045472;28;20049;-60
2021/12/05 11:33:58;;;;;;;76.20;37.75;;;;;;;10.13;55.67;99829.69;5042879;28;20043;-60
2021/12/05 11:36:32;;;;;;;97.85;47.45;;;;;;;10.18;55.86;99824.09;5044165;28;20045;-60
2021/12/05 11:39:18;;;;;;;89.10;47.88;;;;;;;10.26;55.82;99815.72;5045770;28;20098;-61
2021/12/05 11:41:45;;;;;;;97.35;49.88;;;;;;;10.35;56.00;99811.59;5045977;28;20382;-62
2021/12/05 11:44:17;;;;;;;87.38;44.80;;;;;;;10.40;55.93;99814.78;5026558;28;20050;-61
2021/12/05 11:46:44;;;;;;;112.72;59.38;;;;;;;10.46;56.17;99811.69;5026155;28;20046;-62
2021/12/05 11:49:16;;;;;;;186.43;112.88;;;;;;;10.42;56.15;99805.84;5025407;28;20284;-61
2021/12/05 11:51:49;;;;;;;82.32;54.55;;;;;;;10.50;56.28;99804.44;5043076;28;20481;-60
2021/12/05 11:54:29;;;;;;;60.22;41.13;;;;;;;10.40;56.43;99802.50;5045116;28;20741;-62
2021/12/05 11:57:24;;;;;;;57.60;38.92;;;;;;;10.50;56.36;99801.84;5045001;28;20048;-60
2021/12/05 12:00:01;;;;;;;63.35;42.70;;;;;;;10.56;56.00;99804.88;5045006;28;20057;-61
2021/12/05 12:02:33;;;;;;;65.55;42.30;;;;;;;10.65;55.82;99802.53;5042991;28;20048;-60
2021/12/05 12:05:03;;;;;;;50.85;32.13;;;;;;;10.60;55.77;99802.84;5044876;28;20045;-61
2021/12/05 12:07:40;;;;;;;62.75;39.97;;;;;;;10.70;55.68;99795.97;5044764;28;20053;-61
2021/12/05 12:10:30;;;;;;;62.60;39.97;;;;;;;10.66;55.71;99791.09;5042959;28;20409;-61
2021/12/05 12:13:08;;;;;;;49.67;31.05;;;;;;;10.58;55.73;99796.88;5038921;28;20073;-62
2021/12/05 12:15:36;;;;;;;56.55;32.03;;;;;;;10.55;55.60;99794.47;5025563;28;20049;-63
2021/12/05 12:18:16;;;;;;;45.65;26.42;;;;;;;10.53;55.66;99791.97;5029839;28;20045;-60
2021/12/05 12:20:46;;;;;;;106.95;54.20;;;;;;;10.58;55.51;99789.84;5045343;28;20049;-61
2021/12/05 12:23:15;;;;;;;60.42;34.30;;;;;;;10.60;55.41;99787.09;5045065;28;20060;-61
2021/12/05 12:25:45;;;;;;;61.85;33.55;;;;;;;10.59;55.42;99788.06;5035949;28;20457;-60
2021/12/05 12:28:13;;;;;;;47.72;27.80;;;;;;;10.56;55.36;99786.50;5038067;28;20056;-62
2021/12/05 12:30:43;;;;;;;54.40;29.23;;;;;;;10.59;55.27;99785.44;5045321;28;20504;-63
2021/12/05 12:33:38;;;;;;;79.00;40.70;;;;;;;10.57;55.40;99780.28;5033527;28;20453;-61
2021/12/05 12:36:05;;;;;;;62.63;35.58;;;;;;;10.53;55.32;99781.47;5011714;28;20061;-60
2021/12/05 12:38:36;;;;;;;55.50;33.50;;;;;;;10.56;55.37;99772.53;5012421;28;20054;-68
2021/12/05 12:41:20;;;;;;;49.33;31.55;;;;;;;10.45;55.39;99774.16;5011878;28;20054;-61
2021/12/05 12:43:55;;;;;;;37.72;22.70;;;;;;;10.39;55.50;99771.97;5011830;28;20061;-63
2021/12/05 12:46:36;;;;;;;33.30;22.75;;;;;;;10.35;55.47;99772.25;5012171;28;20056;-60
2021/12/05 12:49:15;;;;;;;39.75;25.33;;;;;;;10.26;55.65;99769.34;5011448;28;20084;-59
2021/12/05 12:52:02;;;;;;;31.75;20.77;;;;;;;10.22;55.61;99767.91;5011715;28;20045;-61
2021/12/05 12:54:31;;;;;;;;;;;;;;;10.19;55.72;99769.91;5012013;28;20054;-61
2021/12/05 12:57:13;;;;;;;65.50;38.80;;;;;;;10.16;55.66;99770.97;5011389;28;19929;-60
2021/12/05 12:59:43;;;;;;;24.95;17.52;;;;;;;10.13;55.79;99761.53;5012011;28;20110;-61
2021/12/05 13:02:28;;;;;;;27.70;21.83;;;;;;;10.17;55.61;99761.28;5011817;28;20049;-60
2021/12/05 13:05:35;;;;;;;25.27;18.42;;;;;;;10.12;55.91;99765.09;5030589;28;20054;-60
2021/12/05 13:10:40;;;;;;;31.77;20.80;;;;;;;9.95;56.21;99768.91;5011428;28;20116;-60
2021/12/05 13:13:13;;;;;;;31.05;21.67;;;;;;;9.94;56.06;99774.22;5011130;28;20056;-61
2021/12/05 13:15:52;;;;;;;30.02;19.95;;;;;;;9.94;56.13;99779.47;5011095;28;20054;-62
2021/12/05 13:18:25;;;;;;;33.20;21.90;;;;;;;10.00;55.84;99772.97;5010943;28;20061;-61
2021/12/05 13:21:03;;;;;;;46.08;29.30;;;;;;;10.00;55.80;99768.56;5010696;28;20052;-61
2021/12/05 13:23:37;;;;;;;39.53;25.13;;;;;;;10.03;55.92;99776.22;5011043;28;20112;-62
2021/12/05 13:26:15;;;;;;;43.42;27.08;;;;;;;9.96;56.23;99767.94;5010733;28;20392;-61
2021/12/05 13:28:56;;;;;;;49.78;29.55;;;;;;;9.94;56.33;99771.59;5028815;28;20482;-62
2021/12/05 13:31:29;;;;;;;46.42;28.58;;;;;;;9.97;56.30;99777.47;5029366;28;20516;-61
2021/12/05 13:34:26;;;;;;;31.30;20.67;;;;;;;10.00;56.27;99778.22;5030518;28;20061;-60
2021/12/05 13:36:58;;;;;;;46.08;27.55;;;;;;;10.54;55.95;99777.91;5030085;28;20054;-59
2021/12/05 13:39:47;;;;;;;66.30;22.20;;;;;;;10.66;56.46;99775.34;5030567;28;20053;-61
2021/12/05 13:42:19;;;;;;;43.50;21.17;;;;;;;10.70;57.09;99782.03;5030731;28;20410;-62
2021/12/05 13:44:58;;;;;;;42.28;19.98;;;;;;;11.30;57.71;99782.88;5024091;28;20045;-59
2021/12/05 13:47:51;;;;;;;38.90;23.55;;;;;;;11.36;58.11;99784.19;5029493;28;20494;-60
2021/12/05 13:50:29;;;;;;;49.38;29.58;;;;;;;11.21;58.25;99789.66;5007652;28;20048;-60
2021/12/05 13:53:14;;;;;;;44.13;26.27;;;;;;;11.57;56.98;99794.88;5018658;28;20045;-60
2021/12/05 13:55:53;;;;;;;25.98;17.83;;;;;;;11.55;56.26;99794.13;5028349;28;20052;-60
2021/12/05 13:58:23;;;;;;;24.52;17.55;;;;;;;11.62;55.90;99805.00;5030492;28;20048;-60
2021/12/05 14:01:07;;;;;;;30.27;13.95;;;;;;;12.06;54.33;99808.66;5029971;28;20049;-62
2021/12/05 14:03:45;;;;;;;28.15;17.23;;;;;;;12.90;53.66;99801.09;5029523;28;20045;-60
2021/12/05 14:06:32;;;;;;;23.58;16.38;;;;;;;13.03;52.82;99808.00;5028098;28;20572;-61
2021/12/05 14:09:00;;;;;;;24.55;17.55;;;;;;;13.09;52.43;99812.78;5021864;28;20050;-60
2021/12/05 14:11:27;;;;;;;27.63;13.32;;;;;;;13.41;51.69;99816.34;5010332;28;20058;-60
2021/12/05 14:13:54;;;;;;;28.13;19.85;;;;;;;13.55;52.08;99814.22;5018364;28;20077;-60
2021/12/05 14:16:30;;;;;;;31.73;23.17;;;;;;;13.18;52.24;99827.81;5029629;28;20041;-60
2021/12/05 14:18:57;;;;;;;31.27;22.52;;;;;;;13.11;52.04;99831.91;5029757;28;20049;-60
2021/12/05 14:21:26;;;;;;;32.17;22.40;;;;;;;13.18;51.55;99827.81;5029363;28;20061;-60
2021/12/05 14:23:56;;;;;;;33.17;22.80;;;;;;;13.28;51.27;99825.28;5029219;28;20053;-60
2021/12/05 14:26:27;;;;;;;35.15;22.25;;;;;;;13.25;51.22;99827.31;5023924;28;20056;-61
2021/12/05 14:29:06;;;;;;;34.10;22.67;;;;;;;13.09;51.20;99825.09;5029781;28;20061;-60
2021/12/05 14:31:39;;;;;;;27.60;15.82;;;;;;;13.03;51.40;99834.34;5028969;28;20513;-67
2021/12/05 14:34:09;;;;;;;30.38;23.38;;;;;;;13.33;51.49;99836.25;5026332;28;20053;-59
2021/12/05 14:36:50;;;;;;;38.00;24.85;;;;;;;13.01;51.62;99838.91;5025105;28;20065;-59
2021/12/05 14:39:19;;;;;;;34.08;24.45;;;;;;;12.83;51.60;99846.50;5026018;28;20103;-60
2021/12/05 14:41:48;;;;;;;34.30;25.10;;;;;;;12.71;51.82;99851.78;5018542;28;20056;-59
2021/12/05 14:44:15;;;;;;;38.33;25.27;;;;;;;12.60;52.03;99850.97;5029416;28;20049;-59
2021/12/05 14:47:10;;;;;;;43.30;31.20;;;;;;;12.12;52.81;99857.34;5029825;28;20046;-61
2021/12/05 14:49:47;;;;;;;38.70;26.15;;;;;;;11.68;53.39;99868.47;5016557;28;20124;-59
2021/12/05 14:52:24;;;;;;;54.60;34.15;;;;;;;11.29;54.09;99862.63;5009469;28;20486;-60
2021/12/05 14:54:52;;;;;;;47.05;31.60;;;;;;;11.08;54.30;99879.00;5009654;28;20050;-60
2021/12/05 14:57:22;;;;;;;42.15;19.67;;;;;;;11.04;54.77;99880.16;5019133;28;20052;-61
2021/12/05 14:59:58;;;;;;;89.82;45.10;;;;;;;10.88;55.32;99885.69;5026110;28;20119;-61
2021/12/05 15:02:24;;;;;;;100.35;46.45;;;;;;;10.87;55.42;99888.41;5029164;28;20057;-59
2021/12/05 15:04:53;;;;;;;88.57;43.70;;;;;;;10.63;55.74;99897.09;5028961;28;20080;-59
2021/12/05 15:07:22;;;;;;;164.90;72.45;;;;;;;10.49;56.07;99899.81;5028966;28;20057;-60
2021/12/05 15:09:53;;;;;;;129.20;60.15;;;;;;;10.35;56.16;99904.22;5028872;28;20041;-60
2021/12/05 15:12:29;;;;;;;71.25;37.60;;;;;;;10.20;56.40;99913.97;5028345;28;20596;-59
2021/12/05 15:15:00;;;;;;;39.63;27.20;;;;;;;10.06;56.66;99920.16;5028964;28;20056;-60
2021/12/05 15:17:34;;;;;;;36.25;26.38;;;;;;;10.07;56.86;99926.28;5027719;28;20056;-60
2021/12/05 15:20:06;;;;;;;37.92;26.40;;;;;;;9.93;57.21;99930.66;5028905;28;20056;-60
2021/12/05 15:22:41;;;;;;;39.22;27.25;;;;;;;9.87;57.22;99938.91;5028229;28;20049;-59
2021/12/05 15:25:12;;;;;;;37.28;25.95;;;;;;;9.77;57.52;99948.34;5025716;28;20046;-58
2021/12/05 15:27:39;;;;;;;21.33;12.32;;;;;;;10.61;57.43;99949.69;5027037;28;20088;-63
2021/12/05 15:30:13;;;;;;;36.03;26.23;;;;;;;10.29;58.20;99946.59;5008149;28;20105;-64
2021/12/05 15:32:40;;;;;;;37.00;26.85;;;;;;;10.03;58.52;99954.47;5008976;28;20053;-65
2021/12/05 15:35:14;;;;;;;37.03;26.63;;;;;;;9.85;58.80;99951.28;5008978;28;20510;-60
2021/12/05 15:37:57;;;;;;;37.10;26.95;;;;;;;9.66;58.90;99958.69;5009191;28;20057;-58
2021/12/05 15:40:26;;;;;;;36.10;26.20;;;;;;;9.57;59.23;99963.59;5009494;28;20256;-58
2021/12/05 15:43:04;;;;;;;37.08;25.63;;;;;;;9.53;59.00;99962.09;5008587;28;20968;-59
2021/12/05 15:45:32;;;;;;;37.75;27.23;;;;;;;9.48;58.79;99974.66;5009097;28;20061;-59
2021/12/05 15:47:59;;;;;;;37.45;26.52;;;;;;;9.43;58.72;99971.47;5008772;28;20469;-58
2021/12/05 15:50:29;;;;;;;17.17;9.95;;;;;;;9.68;59.77;99981.22;5008913;28;20056;-61
2021/12/05 15:53:04;;;;;;;19.15;12.88;;;;;;;10.77;59.07;99967.78;5008677;28;20056;-61
2021/12/05 15:55:40;;;;;;;38.65;26.05;;;;;;;11.06;58.75;99964.06;5009284;28;20123;-63
2021/12/05 15:58:13;;;;;;;26.23;15.82;;;;;;;11.25;59.06;99980.19;5015009;28;20045;-59
2021/12/05 16:00:48;;;;;;;42.40;28.23;;;;;;;10.74;59.50;99978.53;5024529;28;20060;-59
2021/12/05 16:03:23;;;;;;;44.90;30.77;;;;;;;10.26;60.16;99994.03;5009573;28;20046;-59
2021/12/05 16:05:56;;;;;;;36.17;25.90;;;;;;;9.95;60.43;100002.16;5012301;28;20056;-60
2021/12/05 16:08:28;;;;;;;33.58;24.02;;;;;;;9.80;60.32;99997.91;5028669;28;20487;-59
2021/12/05 16:10:58;;;;;;;34.55;22.85;;;;;;;9.63;60.35;99997.22;5031857;28;20045;-59
2021/12/05 16:13:32;;;;;;;30.05;20.55;;;;;;;9.77;59.78;100001.56;5031233;28;20564;-59
2021/12/05 16:16:14;;;;;;;21.88;11.60;;;;;;;10.19;60.10;100003.25;5031526;28;20049;-60
2021/12/05 16:18:44;;;;;;;25.23;18.23;;;;;;;10.10;59.87;100005.53;5031320;28;20049;-60
2021/12/05 16:21:22;;;;;;;22.33;17.13;;;;;;;9.76;60.14;100002.53;5028188;28;20041;-61
2021/12/05 16:23:50;;;;;;;18.85;15.02;;;;;;;9.59;60.25;100014.09;5012162;28;20062;-61
2021/12/05 16:26:26;;;;;;;23.95;12.82;;;;;;;10.05;59.32;100018.09;5025401;28;20038;-62
2021/12/05 16:29:05;;;;;;;19.45;14.20;;;;;;;9.71;59.71;100017.69;5030108;28;20045;-63
2021/12/05 16:31:38;;;;;;;20.45;13.93;;;;;;;9.55;59.59;100016.97;5030046;28;20053;-61
2021/12/05 16:34:08;;;;;;;20.08;12.88;;;;;;;9.40;59.67;100017.03;5025593;28;20045;-62
2021/12/05 16:36:56;;;;;;;17.30;13.00;;;;;;;9.32;59.80;100011.47;5031131;28;20095;-61
2021/12/05 16:39:45;;;;;;;15.95;11.80;;;;;;;9.22;59.64;100020.81;5030725;28;20482;-61
2021/12/05 16:42:16;;;;;;;15.60;11.55;;;;;;;9.19;59.53;100021.00;5029224;28;20387;-61
2021/12/05 16:45:03;;;;;;;14.90;10.38;;;;;;;9.08;59.43;100019.06;5031060;28;20045;-61
2021/12/05 16:47:31;;;;;;;16.55;11.20;;;;;;;9.00;59.71;100019.53;5030901;28;20037;-66
2021/12/05 16:50:00;;;;;;;15.05;10.05;;;;;;;8.95;59.80;100011.97;5027407;28;20050;-60
2021/12/05 16:52:36;;;;;;;15.02;10.38;;;;;;;8.94;59.53;100022.53;5028078;28;20041;-61
2021/12/05 16:55:16;;;;;;;12.85;9.82;;;;;;;8.89;59.58;100030.66;5020927;28;20050;-60
2021/12/05 16:57:55;;;;;;;12.20;9.63;;;;;;;8.84;59.50;100030.09;5030190;28;20045;-60
2021/12/05 17:00:25;;;;;;;14.98;9.82;;;;;;;8.81;59.47;100028.53;5026688;28;20116;-60
2021/12/05 17:02:56;;;;;;;12.82;10.15;;;;;;;8.77;59.45;100028.78;5028936;28;20045;-60
2021/12/05 17:05:29;;;;;;;14.20;8.77;;;;;;;8.74;59.57;100031.59;5030533;28;20139;-60
2021/12/05 17:08:10;;;;;;;13.05;10.07;;;;;;;8.72;59.56;100038.69;5027160;28;20493;-59
2021/12/05 17:10:45;;;;;;;12.80;10.00;;;;;;;8.73;59.41;100040.38;5030190;28;20041;-60
2021/12/05 17:13:30;;;;;;;16.30;11.43;;;;;;;8.71;59.68;100044.84;5015804;28;20108;-59
2021/12/05 17:16:03;;;;;;;18.80;12.60;;;;;;;8.68;59.79;100047.66;5029113;28;20528;-59
2021/12/05 17:18:58;;;;;;;20.23;12.38;;;;;;;8.61;59.95;100053.25;5029617;28;20088;-60
2021/12/05 17:21:29;;;;;;;17.90;11.57;;;;;;;8.60;59.86;100056.81;5028217;28;20044;-60
2021/12/05 17:24:05;;;;;;;12.82;9.55;;;;;;;8.58;60.07;100058.69;5027718;28;20042;-60
2021/12/05 17:26:39;;;;;;;14.88;10.63;;;;;;;8.55;60.18;100055.41;5029026;28;20052;-61
2021/12/05 17:29:22;;;;;;;17.83;11.55;;;;;;;8.54;59.98;100049.31;5021873;28;20038;-60
2021/12/05 17:31:55;;;;;;;15.38;11.75;;;;;;;8.49;60.35;100048.75;5027300;28;20060;-59
2021/12/05 17:34:27;;;;;;;15.55;11.40;;;;;;;8.44;60.43;100063.84;5027839;28;20073;-60
2021/12/05 17:36:56;;;;;;;15.70;9.07;;;;;;;9.60;59.80;100056.84;5030317;28;20505;-60
2021/12/05 17:39:27;;;;;;;16.00;11.25;;;;;;;9.51;60.22;100058.28;5027775;28;20045;-63
2021/12/05 17:41:58;;;;;;;14.90;10.05;;;;;;;9.17;61.13;100067.38;5024108;28;20052;-60
2021/12/05 17:44:25;;;;;;;15.00;10.30;;;;;;;8.94;61.21;100065.25;5010888;28;20050;-60
2021/12/05 17:46:54;;;;;;;11.88;9.05;;;;;;;8.81;61.11;100070.38;5011080;28;20065;-60
2021/12/05 17:49:24;;;;;;;11.80;9.65;;;;;;;8.65;61.17;100069.63;5011041;28;20108;-59
2021/12/05 17:51:52;;;;;;;13.23;9.88;;;;;;;8.61;61.28;100066.34;5010795;28;20058;-61
2021/12/05 17:54:51;;;;;;;14.80;9.52;;;;;;;8.54;61.18;100077.25;5010646;28;20050;-61
2021/12/05 17:57:16;;;;;;;14.38;9.85;;;;;;;8.44;61.52;100074.28;5011456;28;20104;-63